sensor_id;sensor_type;location;lat;lon;timestamp;P1;durP1;ratioP1;P2;durP2;ratioP2
2564;SDS011;1292;48.020;7.822;2023-12-04T06:46:17;18.57;;;13.53;;
2564;SDS011;1292;48.020;7.822;2023-12-04T06:48:50;20.70;;;14.40;;
2564;SDS011;1292;48.020;7.822;2023-12-04T06:51:20;18.87;;;13.80;;
2564;SDS011;1292;48.020;7.822;2023-12-04T06:53:47;20.60;;;14.73;;
2564;SDS011;1292;48.020;7.822;2023-12-04T06:56:14;22.20;;;13.80;;
2564;SDS011;1292;48.020;7.822;2023-12-04T06:58:41;24.60;;;14.83;;
2564;SDS011;1292;48.020;7.822;2023-12-04T07:01:08;21.40;;;13.97;;
2564;SDS011;1292;48.020;7.822;2023-12-04T07:03:36;24.60;;;15.13;;
2564;SDS011;1292;48.020;7.822;2023-12-04T07:06:03;23.17;;;12.43;;
2564;SDS011;1292;48.020;7.822;2023-12-04T07:08:31;25.57;;;14.97;;
2564;SDS011;1292;48.020;7.822;2023-12-04T07:10:58;24.90;;;15.00;;
2564;SDS011;1292;48.020;7.822;2023-12-04T07:13:24;21.80;;;14.20;;
2564;SDS011;1292;48.020;7.822;2023-12-04T07:15:51;19.43;;;13.90;;
2564;SDS011;1292;48.020;7.822;2023-12-04T07:18:18;23.07;;;16.47;;
2564;SDS011;1292;48.020;7.822;2023-12-04T07:20:46;19.93;;;12.80;;
2564;SDS011;1292;48.020;7.822;2023-12-04T07:23:13;24.20;;;13.47;;
2564;SDS011;1292;48.020;7.822;2023-12-04T07:25:40;23.40;;;13.40;;
2564;SDS011;1292;48.020;7.822;2023-12-04T07:28:07;19.27;;;12.47;;
2564;SDS011;1292;48.020;7.822;2023-12-04T07:30:34;27.20;;;16.17;;
2564;SDS011;1292;48.020;7.822;2023-12-04T07:33:00;21.97;;;13.40;;
2564;SDS011;1292;48.020;7.822;2023-12-04T07:35:27;16.17;;;12.40;;
2564;SDS011;1292;48.020;7.822;2023-12-04T07:37:55;22.20;;;13.00;;
2564;SDS011;1292;48.020;7.822;2023-12-04T07:40:22;19.10;;;12.23;;
2564;SDS011;1292;48.020;7.822;2023-12-04T07:42:49;23.27;;;13.13;;
2564;SDS011;1292;48.020;7.822;2023-12-04T07:45:16;22.03;;;13.70;;
2564;SDS011;1292;48.020;7.822;2023-12-04T07:47:42;27.03;;;14.40;;
2564;SDS011;1292;48.020;7.822;2023-12-04T07:50:09;24.70;;;14.30;;
2564;SDS011;1292;48.020;7.822;2023-12-04T07:52:36;18.23;;;13.30;;
2564;SDS011;1292;48.020;7.822;2023-12-04T07:55:05;26.63;;;17.00;;
2564;SDS011;1292;48.020;7.822;2023-12-04T07:57:32;23.30;;;15.10;;
2564;SDS011;1292;48.020;7.822;2023-12-04T07:59:59;25.30;;;16.20;;
2564;SDS011;1292;48.020;7.822;2023-12-04T08:02:26;24.00;;;15.33;;
2564;SDS011;1292;48.020;7.822;2023-12-04T08:04:53;16.30;;;12.40;;
2564;SDS011;1292;48.020;7.822;2023-12-04T08:07:19;24.73;;;14.03;;
2564;SDS011;1292;48.020;7.822;2023-12-04T08:09:46;21.37;;;13.70;;
2564;SDS011;1292;48.020;7.822;2023-12-04T08:12:14;31.63;;;15.93;;
2564;SDS011;1292;48.020;7.822;2023-12-04T08:14:41;23.37;;;15.03;;
2564;SDS011;1292;48.020;7.822;2023-12-04T08:17:08;23.30;;;15.97;;
2564;SDS011;1292;48.020;7.822;2023-12-04T08:19:35;24.63;;;15.27;;
2564;SDS011;1292;48.020;7.822;2023-12-04T08:22:02;23.57;;;16.60;;
2564;SDS011;1292;48.020;7.822;2023-12-04T08:24:29;27.60;;;16.70;;
2564;SDS011;1292;48.020;7.822;2023-12-04T08:26:56;21.90;;;14.17;;
2564;SDS011;1292;48.020;7.822;2023-12-04T08:29:24;25.37;;;15.20;;
2564;SDS011;1292;48.020;7.822;2023-12-04T08:31:51;30.43;;;16.87;;
2564;SDS011;1292;48.020;7.822;2023-12-04T08:34:18;23.77;;;15.80;;
2564;SDS011;1292;48.020;7.822;2023-12-04T08:36:45;22.37;;;13.53;;
2564;SDS011;1292;48.020;7.822;2023-12-04T08:39:12;22.10;;;13.37;;
2564;SDS011;1292;48.020;7.822;2023-12-04T08:41:39;22.70;;;15.27;;
2564;SDS011;1292;48.020;7.822;2023-12-04T08:44:05;34.10;;;17.67;;
2564;SDS011;1292;48.020;7.822;2023-12-04T08:46:33;20.10;;;13.97;;
2564;SDS011;1292;48.020;7.822;2023-12-04T08:49:00;21.20;;;15.53;;
2564;SDS011;1292;48.020;7.822;2023-12-04T08:51:27;27.03;;;14.33;;
2564;SDS011;1292;48.020;7.822;2023-12-04T08:53:54;22.30;;;14.20;;
2564;SDS011;1292;48.020;7.822;2023-12-04T08:56:20;27.97;;;15.63;;
2564;SDS011;1292;48.020;7.822;2023-12-04T08:58:48;21.50;;;12.27;;
2564;SDS011;1292;48.020;7.822;2023-12-04T09:01:15;21.90;;;14.43;;
2564;SDS011;1292;48.020;7.822;2023-12-04T09:03:43;22.73;;;14.03;;
2564;SDS011;1292;48.020;7.822;2023-12-04T09:06:10;23.00;;;13.13;;
2564;SDS011;1292;48.020;7.822;2023-12-04T09:08:37;19.47;;;13.30;;
2564;SDS011;1292;48.020;7.822;2023-12-04T09:11:04;26.70;;;15.33;;
2564;SDS011;1292;48.020;7.822;2023-12-04T09:13:31;23.17;;;13.60;;
2564;SDS011;1292;48.020;7.822;2023-12-04T09:15:59;22.17;;;13.23;;
2564;SDS011;1292;48.020;7.822;2023-12-04T09:18:25;29.30;;;15.23;;
2564;SDS011;1292;48.020;7.822;2023-12-04T09:20:54;19.30;;;13.00;;
2564;SDS011;1292;48.020;7.822;2023-12-04T09:23:20;31.93;;;13.90;;
2564;SDS011;1292;48.020;7.822;2023-12-04T09:25:47;26.77;;;15.63;;
2564;SDS011;1292;48.020;7.822;2023-12-04T09:28:14;24.00;;;14.77;;
2564;SDS011;1292;48.020;7.822;2023-12-04T09:30:41;21.33;;;14.50;;
2564;SDS011;1292;48.020;7.822;2023-12-04T09:33:08;27.20;;;15.00;;
2564;SDS011;1292;48.020;7.822;2023-12-04T09:35:35;21.60;;;15.57;;
2564;SDS011;1292;48.020;7.822;2023-12-04T09:38:03;24.30;;;14.40;;
2564;SDS011;1292;48.020;7.822;2023-12-04T09:40:30;27.27;;;17.03;;
2564;SDS011;1292;48.020;7.822;2023-12-04T09:42:57;25.47;;;14.37;;
2564;SDS011;1292;48.020;7.822;2023-12-04T09:45:24;23.07;;;15.43;;
2564;SDS011;1292;48.020;7.822;2023-12-04T09:47:51;26.77;;;14.67;;
2564;SDS011;1292;48.020;7.822;2023-12-04T09:50:20;21.40;;;14.40;;
2564;SDS011;1292;48.020;7.822;2023-12-04T09:52:47;22.10;;;14.43;;
2564;SDS011;1292;48.020;7.822;2023-12-04T09:55:17;23.63;;;15.40;;
2564;SDS011;1292;48.020;7.822;2023-12-04T09:57:45;29.63;;;15.13;;
2564;SDS011;1292;48.020;7.822;2023-12-04T10:00:14;24.43;;;16.10;;
2564;SDS011;1292;48.020;7.822;2023-12-04T10:02:41;31.30;;;17.83;;
2564;SDS011;1292;48.020;7.822;2023-12-04T10:05:09;30.83;;;18.57;;
2564;SDS011;1292;48.020;7.822;2023-12-04T10:07:36;33.03;;;19.57;;
2564;SDS011;1292;48.020;7.822;2023-12-04T10:10:03;26.00;;;18.47;;
2564;SDS011;1292;48.020;7.822;2023-12-04T10:12:32;36.70;;;18.10;;
2564;SDS011;1292;48.020;7.822;2023-12-04T10:15:03;40.50;;;24.00;;
2564;SDS011;1292;48.020;7.822;2023-12-04T10:17:35;29.73;;;19.67;;
2564;SDS011;1292;48.020;7.822;2023-12-04T10:20:07;28.87;;;19.30;;
2564;SDS011;1292;48.020;7.822;2023-12-04T10:22:37;26.77;;;17.53;;
2564;SDS011;1292;48.020;7.822;2023-12-04T10:25:14;23.97;;;17.33;;
2564;SDS011;1292;48.020;7.822;2023-12-04T10:27:44;27.47;;;18.70;;
2564;SDS011;1292;48.020;7.822;2023-12-04T10:30:21;25.13;;;16.50;;
2564;SDS011;1292;48.020;7.822;2023-12-04T10:32:49;30.77;;;17.07;;
2564;SDS011;1292;48.020;7.822;2023-12-04T10:35:20;37.40;;;19.43;;
2564;SDS011;1292;48.020;7.822;2023-12-04T10:37:47;22.77;;;15.80;;
2564;SDS011;1292;48.020;7.822;2023-12-04T10:40:22;25.53;;;16.63;;
2564;SDS011;1292;48.020;7.822;2023-12-04T10:42:50;27.53;;;15.27;;
2564;SDS011;1292;48.020;7.822;2023-12-04T10:45:17;25.07;;;15.80;;
2564;SDS011;1292;48.020;7.822;2023-12-04T10:47:47;26.20;;;16.30;;
2564;SDS011;1292;48.020;7.822;2023-12-04T10:50:15;32.00;;;17.03;;
2564;SDS011;1292;48.020;7.822;2023-12-04T10:52:43;25.63;;;16.70;;
2564;SDS011;1292;48.020;7.822;2023-12-04T10:55:12;22.00;;;16.47;;
2564;SDS011;1292;48.020;7.822;2023-12-04T10:57:39;22.20;;;14.90;;
2564;SDS011;1292;48.020;7.822;2023-12-04T11:00:11;25.97;;;15.43;;
2564;SDS011;1292;48.020;7.822;2023-12-04T11:02:42;22.50;;;16.13;;
2564;SDS011;1292;48.020;7.822;2023-12-04T11:05:14;21.90;;;16.17;;
2564;SDS011;1292;48.020;7.822;2023-12-04T11:07:44;25.33;;;14.97;;
2564;SDS011;1292;48.020;7.822;2023-12-04T11:10:16;30.83;;;19.27;;
2564;SDS011;1292;48.020;7.822;2023-12-04T11:12:46;24.90;;;17.47;;
2564;SDS011;1292;48.020;7.822;2023-12-04T11:15:20;23.83;;;16.77;;
2564;SDS011;1292;48.020;7.822;2023-12-04T11:17:51;22.77;;;15.27;;
2564;SDS011;1292;48.020;7.822;2023-12-04T11:20:26;25.10;;;16.50;;
2564;SDS011;1292;48.020;7.822;2023-12-04T11:22:56;26.97;;;19.27;;
2564;SDS011;1292;48.020;7.822;2023-12-04T11:25:24;26.17;;;16.37;;
2564;SDS011;1292;48.020;7.822;2023-12-04T11:27:54;26.23;;;17.17;;
2564;SDS011;1292;48.020;7.822;2023-12-04T11:30:22;29.07;;;17.07;;
2564;SDS011;1292;48.020;7.822;2023-12-04T11:32:50;27.30;;;18.50;;
2564;SDS011;1292;48.020;7.822;2023-12-04T11:35:21;27.80;;;19.00;;
2564;SDS011;1292;48.020;7.822;2023-12-04T11:37:52;21.23;;;15.33;;
2564;SDS011;1292;48.020;7.822;2023-12-04T11:40:19;18.70;;;14.40;;
2564;SDS011;1292;48.020;7.822;2023-12-04T11:42:45;24.23;;;16.60;;
2564;SDS011;1292;48.020;7.822;2023-12-04T11:45:18;23.07;;;17.13;;
2564;SDS011;1292;48.020;7.822;2023-12-04T11:47:49;26.80;;;17.40;;
2564;SDS011;1292;48.020;7.822;2023-12-04T11:50:18;37.93;;;17.50;;
2564;SDS011;1292;48.020;7.822;2023-12-04T11:52:45;28.13;;;16.87;;
2564;SDS011;1292;48.020;7.822;2023-12-04T11:55:15;30.00;;;17.47;;
2564;SDS011;1292;48.020;7.822;2023-12-04T11:57:43;26.77;;;16.17;;
2564;SDS011;1292;48.020;7.822;2023-12-04T12:00:15;24.07;;;15.53;;
2564;SDS011;1292;48.020;7.822;2023-12-04T12:02:47;28.33;;;17.57;;
2564;SDS011;1292;48.020;7.822;2023-12-04T12:05:27;21.10;;;15.17;;
2564;SDS011;1292;48.020;7.822;2023-12-04T12:07:54;27.60;;;16.77;;
2564;SDS011;1292;48.020;7.822;2023-12-04T12:10:21;29.37;;;18.90;;
2564;SDS011;1292;48.020;7.822;2023-12-04T12:12:48;29.03;;;17.90;;
2564;SDS011;1292;48.020;7.822;2023-12-04T12:15:15;26.53;;;16.47;;
2564;SDS011;1292;48.020;7.822;2023-12-04T12:17:42;25.20;;;17.13;;
2564;SDS011;1292;48.020;7.822;2023-12-04T12:20:11;38.10;;;22.10;;
2564;SDS011;1292;48.020;7.822;2023-12-04T12:22:38;23.70;;;15.80;;
2564;SDS011;1292;48.020;7.822;2023-12-04T12:25:07;29.20;;;17.97;;
2564;SDS011;1292;48.020;7.822;2023-12-04T12:27:34;22.73;;;15.93;;
2564;SDS011;1292;48.020;7.822;2023-12-04T12:30:01;35.90;;;17.17;;
2564;SDS011;1292;48.020;7.822;2023-12-04T12:32:29;24.83;;;18.60;;
2564;SDS011;1292;48.020;7.822;2023-12-04T12:34:57;26.30;;;15.83;;
2564;SDS011;1292;48.020;7.822;2023-12-04T12:37:25;26.50;;;17.27;;
2564;SDS011;1292;48.020;7.822;2023-12-04T12:39:52;29.20;;;18.60;;
2564;SDS011;1292;48.020;7.822;2023-12-04T12:42:22;32.00;;;21.70;;
2564;SDS011;1292;48.020;7.822;2023-12-04T12:44:49;38.53;;;23.40;;
2564;SDS011;1292;48.020;7.822;2023-12-04T12:47:16;42.60;;;23.90;;
2564;SDS011;1292;48.020;7.822;2023-12-04T12:49:45;41.00;;;26.07;;
2564;SDS011;1292;48.020;7.822;2023-12-04T12:52:12;51.07;;;29.23;;
2564;SDS011;1292;48.020;7.822;2023-12-04T12:54:41;49.10;;;31.07;;
2564;SDS011;1292;48.020;7.822;2023-12-04T12:57:10;65.90;;;39.57;;
2564;SDS011;1292;48.020;7.822;2023-12-04T12:59:37;45.07;;;25.17;;
2564;SDS011;1292;48.020;7.822;2023-12-04T13:02:05;38.53;;;24.20;;
2564;SDS011;1292;48.020;7.822;2023-12-04T13:04:35;32.93;;;20.80;;
2564;SDS011;1292;48.020;7.822;2023-12-04T13:07:03;38.77;;;22.70;;
2564;SDS011;1292;48.020;7.822;2023-12-04T13:09:31;35.70;;;22.43;;
2564;SDS011;1292;48.020;7.822;2023-12-04T13:11:59;31.30;;;20.63;;
2564;SDS011;1292;48.020;7.822;2023-12-04T13:14:26;32.33;;;21.43;;
2564;SDS011;1292;48.020;7.822;2023-12-04T13:16:53;34.27;;;21.57;;
2564;SDS011;1292;48.020;7.822;2023-12-04T13:19:21;31.70;;;21.20;;
2564;SDS011;1292;48.020;7.822;2023-12-04T13:21:48;31.97;;;19.83;;
2564;SDS011;1292;48.020;7.822;2023-12-04T13:24:15;24.90;;;18.80;;
2564;SDS011;1292;48.020;7.822;2023-12-04T13:26:42;33.50;;;21.83;;
2564;SDS011;1292;48.020;7.822;2023-12-04T13:29:11;33.73;;;24.10;;
2564;SDS011;1292;48.020;7.822;2023-12-04T13:31:40;32.50;;;22.60;;
2564;SDS011;1292;48.020;7.822;2023-12-04T13:34:08;41.20;;;26.03;;
2564;SDS011;1292;48.020;7.822;2023-12-04T13:36:36;41.27;;;27.97;;
2564;SDS011;1292;48.020;7.822;2023-12-04T13:39:03;39.80;;;24.03;;
2564;SDS011;1292;48.020;7.822;2023-12-04T13:41:30;39.07;;;26.00;;
2564;SDS011;1292;48.020;7.822;2023-12-04T13:44:16;40.40;;;28.77;;
2564;SDS011;1292;48.020;7.822;2023-12-04T13:46:43;38.40;;;27.83;;
2564;SDS011;1292;48.020;7.822;2023-12-04T13:49:12;31.30;;;22.57;;
2564;SDS011;1292;48.020;7.822;2023-12-04T13:51:39;37.13;;;25.47;;
2564;SDS011;1292;48.020;7.822;2023-12-04T13:54:06;31.87;;;25.50;;
2564;SDS011;1292;48.020;7.822;2023-12-04T13:56:45;40.77;;;25.30;;
2564;SDS011;1292;48.020;7.822;2023-12-04T13:59:19;44.67;;;27.40;;
2564;SDS011;1292;48.020;7.822;2023-12-04T14:01:47;38.13;;;27.43;;
2564;SDS011;1292;48.020;7.822;2023-12-04T14:04:16;45.07;;;26.87;;
2564;SDS011;1292;48.020;7.822;2023-12-04T14:06:43;41.23;;;27.10;;
2564;SDS011;1292;48.020;7.822;2023-12-04T14:09:10;42.03;;;30.87;;
2564;SDS011;1292;48.020;7.822;2023-12-04T14:11:39;46.27;;;33.13;;
2564;SDS011;1292;48.020;7.822;2023-12-04T14:14:08;45.13;;;29.67;;
2564;SDS011;1292;48.020;7.822;2023-12-04T14:16:36;45.73;;;28.83;;
2564;SDS011;1292;48.020;7.822;2023-12-04T14:19:03;36.43;;;25.20;;
2564;SDS011;1292;48.020;7.822;2023-12-04T14:21:30;34.07;;;24.27;;
2564;SDS011;1292;48.020;7.822;2023-12-04T14:23:56;39.50;;;24.37;;
2564;SDS011;1292;48.020;7.822;2023-12-04T14:26:23;29.83;;;21.23;;
2564;SDS011;1292;48.020;7.822;2023-12-04T14:28:50;29.77;;;19.43;;
2564;SDS011;1292;48.020;7.822;2023-12-04T14:31:17;30.60;;;19.40;;
2564;SDS011;1292;48.020;7.822;2023-12-04T14:33:45;31.10;;;20.13;;
2564;SDS011;1292;48.020;7.822;2023-12-04T14:36:13;28.07;;;18.80;;
2564;SDS011;1292;48.020;7.822;2023-12-04T14:38:40;30.03;;;17.10;;
2564;SDS011;1292;48.020;7.822;2023-12-04T14:41:07;26.87;;;18.67;;
2564;SDS011;1292;48.020;7.822;2023-12-04T14:43:35;35.13;;;19.20;;
2564;SDS011;1292;48.020;7.822;2023-12-04T14:46:03;29.47;;;18.57;;
2564;SDS011;1292;48.020;7.822;2023-12-04T14:48:30;31.70;;;20.70;;
2564;SDS011;1292;48.020;7.822;2023-12-04T14:50:58;23.07;;;17.30;;
2564;SDS011;1292;48.020;7.822;2023-12-04T14:53:25;34.43;;;22.20;;
2564;SDS011;1292;48.020;7.822;2023-12-04T14:55:56;26.97;;;19.60;;
2564;SDS011;1292;48.020;7.822;2023-12-04T14:58:55;33.47;;;23.70;;
2564;SDS011;1292;48.020;7.822;2023-12-04T15:01:58;24.90;;;18.23;;
2564;SDS011;1292;48.020;7.822;2023-12-04T15:04:43;41.70;;;23.30;;
2564;SDS011;1292;48.020;7.822;2023-12-04T15:07:43;29.77;;;21.07;;
2564;SDS011;1292;48.020;7.822;2023-12-04T15:10:33;27.80;;;19.70;;
2564;SDS011;1292;48.020;7.822;2023-12-04T15:13:08;26.40;;;19.30;;
2564;SDS011;1292;48.020;7.822;2023-12-04T15:15:53;36.53;;;25.83;;
2564;SDS011;1292;48.020;7.822;2023-12-04T15:18:45;37.33;;;23.53;;
2564;SDS011;1292;48.020;7.822;2023-12-04T15:21:35;33.83;;;21.90;;
2564;SDS011;1292;48.020;7.822;2023-12-04T15:24:04;27.70;;;21.70;;
2564;SDS011;1292;48.020;7.822;2023-12-04T15:26:32;25.53;;;18.50;;
2564;SDS011;1292;48.020;7.822;2023-12-04T15:28:59;34.00;;;19.67;;
2564;SDS011;1292;48.020;7.822;2023-12-04T15:31:24;29.13;;;18.63;;
2564;SDS011;1292;48.020;7.822;2023-12-04T15:33:51;26.23;;;19.60;;
2564;SDS011;1292;48.020;7.822;2023-12-04T15:36:17;27.60;;;19.50;;
2564;SDS011;1292;48.020;7.822;2023-12-04T15:38:47;28.97;;;20.07;;
2564;SDS011;1292;48.020;7.822;2023-12-04T15:41:14;32.10;;;22.70;;
2564;SDS011;1292;48.020;7.822;2023-12-04T15:43:41;29.37;;;21.97;;
2564;SDS011;1292;48.020;7.822;2023-12-04T15:46:09;31.53;;;21.30;;
2564;SDS011;1292;48.020;7.822;2023-12-04T15:48:36;28.60;;;21.40;;
2564;SDS011;1292;48.020;7.822;2023-12-04T15:51:03;32.20;;;21.57;;
2564;SDS011;1292;48.020;7.822;2023-12-04T15:53:31;42.47;;;25.70;;
2564;SDS011;1292;48.020;7.822;2023-12-04T15:55:57;37.17;;;26.60;;
2564;SDS011;1292;48.020;7.822;2023-12-04T15:58:25;38.17;;;27.07;;
2564;SDS011;1292;48.020;7.822;2023-12-04T16:00:50;38.73;;;25.97;;
2564;SDS011;1292;48.020;7.822;2023-12-04T16:03:17;35.57;;;23.70;;
2564;SDS011;1292;48.020;7.822;2023-12-04T16:05:43;42.87;;;27.87;;
2564;SDS011;1292;48.020;7.822;2023-12-04T16:08:10;46.00;;;28.77;;
2564;SDS011;1292;48.020;7.822;2023-12-04T16:10:37;30.67;;;23.80;;
2564;SDS011;1292;48.020;7.822;2023-12-04T16:13:04;39.37;;;19.40;;
2564;SDS011;1292;48.020;7.822;2023-12-04T16:15:32;28.73;;;19.57;;
2564;SDS011;1292;48.020;7.822;2023-12-04T16:17:59;31.50;;;20.80;;
2564;SDS011;1292;48.020;7.822;2023-12-04T16:20:25;30.00;;;18.17;;
2564;SDS011;1292;48.020;7.822;2023-12-04T16:22:52;45.67;;;29.53;;
2564;SDS011;1292;48.020;7.822;2023-12-04T16:25:19;32.23;;;24.33;;
2564;SDS011;1292;48.020;7.822;2023-12-04T16:27:48;33.90;;;21.93;;
2564;SDS011;1292;48.020;7.822;2023-12-04T16:30:16;29.17;;;21.60;;
2564;SDS011;1292;48.020;7.822;2023-12-04T16:32:45;37.73;;;24.90;;
2564;SDS011;1292;48.020;7.822;2023-12-04T16:35:12;33.53;;;22.67;;
2564;SDS011;1292;48.020;7.822;2023-12-04T16:37:39;38.45;;;28.40;;
2564;SDS011;1292;48.020;7.822;2023-12-04T16:40:06;28.63;;;19.23;;
2564;SDS011;1292;48.020;7.822;2023-12-04T16:42:34;43.23;;;22.97;;
2564;SDS011;1292;48.020;7.822;2023-12-04T16:45:01;26.10;;;17.50;;
2564;SDS011;1292;48.020;7.822;2023-12-04T16:47:27;29.77;;;21.63;;
2564;SDS011;1292;48.020;7.822;2023-12-04T16:49:58;30.90;;;20.77;;
2564;SDS011;1292;48.020;7.822;2023-12-04T16:52:25;24.03;;;17.70;;
2564;SDS011;1292;48.020;7.822;2023-12-04T16:54:52;31.10;;;17.30;;
2564;SDS011;1292;48.020;7.822;2023-12-04T16:57:19;25.37;;;18.07;;
2564;SDS011;1292;48.020;7.822;2023-12-04T16:59:46;29.60;;;18.10;;
2564;SDS011;1292;48.020;7.822;2023-12-04T17:02:13;20.80;;;14.87;;
2564;SDS011;1292;48.020;7.822;2023-12-04T17:04:40;41.63;;;27.07;;
2564;SDS011;1292;48.020;7.822;2023-12-04T17:07:08;24.33;;;17.00;;
2564;SDS011;1292;48.020;7.822;2023-12-04T17:09:35;27.90;;;19.10;;
2564;SDS011;1292;48.020;7.822;2023-12-04T17:12:03;33.10;;;23.10;;
2564;SDS011;1292;48.020;7.822;2023-12-04T17:14:31;29.10;;;19.47;;
2564;SDS011;1292;48.020;7.822;2023-12-04T17:16:57;37.70;;;22.73;;
2564;SDS011;1292;48.020;7.822;2023-12-04T17:19:24;33.80;;;24.40;;
2564;SDS011;1292;48.020;7.822;2023-12-04T17:21:54;30.13;;;20.80;;
2564;SDS011;1292;48.020;7.822;2023-12-04T17:24:22;39.60;;;26.50;;
2564;SDS011;1292;48.020;7.822;2023-12-04T17:26:49;41.53;;;26.70;;
2564;SDS011;1292;48.020;7.822;2023-12-04T17:29:16;46.13;;;32.00;;
2564;SDS011;1292;48.020;7.822;2023-12-04T17:31:43;50.23;;;30.90;;
2564;SDS011;1292;48.020;7.822;2023-12-04T17:34:10;56.80;;;36.93;;
2564;SDS011;1292;48.020;7.822;2023-12-04T17:36:38;51.67;;;30.40;;
2564;SDS011;1292;48.020;7.822;2023-12-04T17:39:04;50.20;;;30.80;;
2564;SDS011;1292;48.020;7.822;2023-12-04T17:41:34;49.03;;;32.57;;
2564;SDS011;1292;48.020;7.822;2023-12-04T17:44:01;44.43;;;28.47;;
2564;SDS011;1292;48.020;7.822;2023-12-04T17:46:29;38.77;;;26.40;;
2564;SDS011;1292;48.020;7.822;2023-12-04T17:48:55;48.33;;;28.37;;
2564;SDS011;1292;48.020;7.822;2023-12-04T17:51:23;45.67;;;30.23;;
2564;SDS011;1292;48.020;7.822;2023-12-04T17:53:51;40.70;;;26.10;;
2564;SDS011;1292;48.020;7.822;2023-12-04T17:56:18;40.17;;;25.30;;
2564;SDS011;1292;48.020;7.822;2023-12-04T17:58:46;40.80;;;25.20;;
2564;SDS011;1292;48.020;7.822;2023-12-04T18:01:13;33.00;;;25.13;;
2564;SDS011;1292;48.020;7.822;2023-12-04T18:03:40;36.37;;;24.67;;
2564;SDS011;1292;48.020;7.822;2023-12-04T18:06:07;35.40;;;25.70;;
2564;SDS011;1292;48.020;7.822;2023-12-04T18:08:34;38.00;;;28.40;;
2564;SDS011;1292;48.020;7.822;2023-12-04T18:11:01;35.03;;;27.97;;
2564;SDS011;1292;48.020;7.822;2023-12-04T18:13:28;42.80;;;29.93;;
2564;SDS011;1292;48.020;7.822;2023-12-04T18:15:56;42.87;;;32.77;;
2564;SDS011;1292;48.020;7.822;2023-12-04T18:18:23;31.73;;;25.50;;
2564;SDS011;1292;48.020;7.822;2023-12-04T18:20:50;38.30;;;29.77;;
2564;SDS011;1292;48.020;7.822;2023-12-04T18:23:16;38.90;;;29.67;;
2564;SDS011;1292;48.020;7.822;2023-12-04T18:25:43;40.70;;;30.20;;
2564;SDS011;1292;48.020;7.822;2023-12-04T18:28:12;37.57;;;28.70;;
2564;SDS011;1292;48.020;7.822;2023-12-04T18:30:40;41.27;;;28.97;;
2564;SDS011;1292;48.020;7.822;2023-12-04T18:33:09;38.10;;;28.00;;
2564;SDS011;1292;48.020;7.822;2023-12-04T18:35:37;39.47;;;29.60;;
2564;SDS011;1292;48.020;7.822;2023-12-04T18:38:05;52.20;;;36.47;;
2564;SDS011;1292;48.020;7.822;2023-12-04T18:40:36;40.57;;;30.60;;
2564;SDS011;1292;48.020;7.822;2023-12-04T18:43:03;36.13;;;29.00;;
2564;SDS011;1292;48.020;7.822;2023-12-04T18:45:30;42.63;;;30.57;;
2564;SDS011;1292;48.020;7.822;2023-12-04T18:47:59;38.03;;;26.93;;
2564;SDS011;1292;48.020;7.822;2023-12-04T18:50:31;38.90;;;27.50;;
2564;SDS011;1292;48.020;7.822;2023-12-04T18:52:59;41.63;;;28.57;;
2564;SDS011;1292;48.020;7.822;2023-12-04T18:55:26;32.77;;;22.57;;
2564;SDS011;1292;48.020;7.822;2023-12-04T18:57:53;31.10;;;21.50;;
2564;SDS011;1292;48.020;7.822;2023-12-04T19:00:20;32.03;;;21.93;;
2564;SDS011;1292;48.020;7.822;2023-12-04T19:02:49;28.23;;;19.13;;
2564;SDS011;1292;48.020;7.822;2023-12-04T19:05:17;27.83;;;21.80;;
2564;SDS011;1292;48.020;7.822;2023-12-04T19:07:45;35.13;;;23.20;;
2564;SDS011;1292;48.020;7.822;2023-12-04T19:10:12;32.00;;;21.00;;
2564;SDS011;1292;48.020;7.822;2023-12-04T19:12:38;43.03;;;25.60;;
2564;SDS011;1292;48.020;7.822;2023-12-04T19:15:06;32.30;;;23.30;;
2564;SDS011;1292;48.020;7.822;2023-12-04T19:17:35;29.57;;;21.23;;
2564;SDS011;1292;48.020;7.822;2023-12-04T19:20:03;48.90;;;30.30;;
2564;SDS011;1292;48.020;7.822;2023-12-04T19:22:30;27.47;;;23.30;;
2564;SDS011;1292;48.020;7.822;2023-12-04T19:24:58;32.20;;;20.80;;
2564;SDS011;1292;48.020;7.822;2023-12-04T19:27:25;54.67;;;35.00;;
2564;SDS011;1292;48.020;7.822;2023-12-04T19:29:52;60.03;;;39.93;;
2564;SDS011;1292;48.020;7.822;2023-12-04T19:32:19;47.77;;;34.13;;
2564;SDS011;1292;48.020;7.822;2023-12-04T19:34:46;39.53;;;27.90;;
2564;SDS011;1292;48.020;7.822;2023-12-04T19:37:13;36.40;;;26.90;;
2564;SDS011;1292;48.020;7.822;2023-12-04T19:39:40;28.67;;;22.97;;
2564;SDS011;1292;48.020;7.822;2023-12-04T19:42:09;33.50;;;23.97;;
2564;SDS011;1292;48.020;7.822;2023-12-04T19:44:36;27.30;;;19.90;;
2564;SDS011;1292;48.020;7.822;2023-12-04T19:47:03;28.37;;;20.80;;
2564;SDS011;1292;48.020;7.822;2023-12-04T19:49:31;24.20;;;18.50;;
2564;SDS011;1292;48.020;7.822;2023-12-04T19:51:58;23.13;;;16.27;;
2564;SDS011;1292;48.020;7.822;2023-12-04T19:54:24;19.50;;;16.10;;
2564;SDS011;1292;48.020;7.822;2023-12-04T19:56:51;22.83;;;16.40;;
2564;SDS011;1292;48.020;7.822;2023-12-04T19:59:19;21.80;;;17.30;;
2564;SDS011;1292;48.020;7.822;2023-12-04T20:01:47;24.90;;;17.70;;
2564;SDS011;1292;48.020;7.822;2023-12-04T20:04:14;21.00;;;16.73;;
2564;SDS011;1292;48.020;7.822;2023-12-04T20:06:41;29.93;;;20.60;;
2564;SDS011;1292;48.020;7.822;2023-12-04T20:09:08;33.90;;;24.00;;
2564;SDS011;1292;48.020;7.822;2023-12-04T20:11:35;26.93;;;19.17;;
2564;SDS011;1292;48.020;7.822;2023-12-04T20:14:02;23.40;;;18.07;;
2564;SDS011;1292;48.020;7.822;2023-12-04T20:16:30;27.23;;;18.87;;
2564;SDS011;1292;48.020;7.822;2023-12-04T20:18:57;23.20;;;17.17;;
2564;SDS011;1292;48.020;7.822;2023-12-04T20:21:24;22.60;;;16.07;;
2564;SDS011;1292;48.020;7.822;2023-12-04T20:23:51;45.37;;;23.07;;
2564;SDS011;1292;48.020;7.822;2023-12-04T20:26:17;32.07;;;20.90;;
2564;SDS011;1292;48.020;7.822;2023-12-04T20:28:44;34.50;;;19.73;;
2564;SDS011;1292;48.020;7.822;2023-12-04T20:31:11;25.07;;;18.90;;
2564;SDS011;1292;48.020;7.822;2023-12-04T20:33:39;28.33;;;18.87;;
2564;SDS011;1292;48.020;7.822;2023-12-04T20:36:10;25.60;;;19.23;;
2564;SDS011;1292;48.020;7.822;2023-12-04T20:38:37;38.43;;;20.47;;
2564;SDS011;1292;48.020;7.822;2023-12-04T20:41:06;29.60;;;21.13;;
2564;SDS011;1292;48.020;7.822;2023-12-04T20:43:33;31.77;;;24.37;;
2564;SDS011;1292;48.020;7.822;2023-12-04T20:46:01;40.53;;;25.17;;
2564;SDS011;1292;48.020;7.822;2023-12-04T20:48:28;40.53;;;25.47;;
2564;SDS011;1292;48.020;7.822;2023-12-04T20:50:56;36.77;;;26.40;;
2564;SDS011;1292;48.020;7.822;2023-12-04T20:53:23;50.33;;;28.73;;
2564;SDS011;1292;48.020;7.822;2023-12-04T20:55:51;35.37;;;24.00;;
2564;SDS011;1292;48.020;7.822;2023-12-04T20:58:18;29.40;;;21.23;;
2564;SDS011;1292;48.020;7.822;2023-12-04T21:00:45;38.50;;;23.00;;
2564;SDS011;1292;48.020;7.822;2023-12-04T21:03:12;31.67;;;23.90;;
2564;SDS011;1292;48.020;7.822;2023-12-04T21:05:39;27.87;;;18.43;;
2564;SDS011;1292;48.020;7.822;2023-12-04T21:08:07;22.37;;;17.47;;
2564;SDS011;1292;48.020;7.822;2023-12-04T21:10:33;40.23;;;29.43;;
2564;SDS011;1292;48.020;7.822;2023-12-04T21:13:00;26.40;;;21.50;;
2564;SDS011;1292;48.020;7.822;2023-12-04T21:15:27;23.70;;;18.00;;
2564;SDS011;1292;48.020;7.822;2023-12-04T21:17:54;27.47;;;18.93;;
2564;SDS011;1292;48.020;7.822;2023-12-04T21:20:21;25.73;;;19.43;;
2564;SDS011;1292;48.020;7.822;2023-12-04T21:22:48;28.07;;;16.73;;
2564;SDS011;1292;48.020;7.822;2023-12-04T21:25:16;26.57;;;16.60;;
2564;SDS011;1292;48.020;7.822;2023-12-04T21:27:43;19.50;;;15.13;;
2564;SDS011;1292;48.020;7.822;2023-12-04T21:30:10;22.50;;;15.53;;
2564;SDS011;1292;48.020;7.822;2023-12-04T21:32:39;24.07;;;16.10;;
2564;SDS011;1292;48.020;7.822;2023-12-04T21:35:06;20.50;;;15.10;;
2564;SDS011;1292;48.020;7.822;2023-12-04T21:37:33;19.00;;;13.00;;
2564;SDS011;1292;48.020;7.822;2023-12-04T21:40:00;22.10;;;13.27;;